createdAt,value
2023-01-27T00:00:57.593Z,56.16
2023-01-27T00:03:25.597Z,56.50
2023-01-27T00:05:52.909Z,56.83
2023-01-27T00:08:20.779Z,56.95
2023-01-27T00:11:08.197Z,57.31
2023-01-27T00:13:35.480Z,57.54
2023-01-27T00:16:03.114Z,57.08
2023-01-27T00:18:30.401Z,56.98
2023-01-27T00:21:16.883Z,57.29
2023-01-27T00:24:02.870Z,55.99
2023-01-27T00:26:30.293Z,55.58
2023-01-27T00:28:57.616Z,55.19
2023-01-27T00:31:43.434Z,55.34
2023-01-27T00:34:11.028Z,55.21
2023-01-27T00:36:41.615Z,55.55
2023-01-27T00:39:10.657Z,55.83
2023-01-27T00:41:39.161Z,56.25
2023-01-27T00:44:07.446Z,55.44
2023-01-27T00:46:34.900Z,56.66
2023-01-27T00:49:02.315Z,56.17
2023-01-27T00:51:31.171Z,56.23
2023-01-27T00:53:59.307Z,56.23
2023-01-27T00:56:28.172Z,56.07
2023-01-27T00:58:55.976Z,55.85
2023-01-27T01:01:23.709Z,55.62
2023-01-27T01:03:51.381Z,56.29
2023-01-27T01:06:19.822Z,55.88
2023-01-27T01:08:49.064Z,55.57
2023-01-27T01:11:18.905Z,55.79
2023-01-27T01:13:46.981Z,55.10
2023-01-27T01:16:22.910Z,55.54
2023-01-27T01:18:50.332Z,55.89
2023-01-27T01:21:17.700Z,55.43
2023-01-27T01:23:46.429Z,55.55
2023-01-27T01:26:16.042Z,55.62
2023-01-27T01:28:45.072Z,55.11
2023-01-27T01:31:15.902Z,55.75
2023-01-27T01:33:43.437Z,55.74
2023-01-27T01:36:13.844Z,55.67
2023-01-27T01:38:41.972Z,55.51
2023-01-27T01:41:28.090Z,55.82
2023-01-27T01:43:55.622Z,56.01
2023-01-27T01:46:23.128Z,56.15
2023-01-27T01:48:55.984Z,56.44
2023-01-27T01:51:34.410Z,56.16
2023-01-27T01:54:13.855Z,56.50
2023-01-27T01:56:49.752Z,56.74
2023-01-27T01:59:27.866Z,56.66
2023-01-27T02:01:57.989Z,56.33
2023-01-27T02:04:29.891Z,56.57
2023-01-27T02:07:18.182Z,56.82
2023-01-27T02:09:45.580Z,57.03
2023-01-27T02:12:13.953Z,57.48
2023-01-27T02:14:41.514Z,57.10
2023-01-27T02:17:13.165Z,56.59
2023-01-27T02:19:54.586Z,57.07
2023-01-27T02:22:32.452Z,57.14
2023-01-27T02:25:10.360Z,57.77
2023-01-27T02:27:37.726Z,57.82
2023-01-27T02:30:05.451Z,57.33
2023-01-27T02:32:34.600Z,57.45
2023-01-27T02:35:02.655Z,57.47
2023-01-27T02:37:31.827Z,57.83
2023-01-27T02:40:02.129Z,58.26
2023-01-27T02:42:29.765Z,57.48
2023-01-27T02:44:57.157Z,57.29
2023-01-27T02:47:25.354Z,57.31
2023-01-27T02:49:54.372Z,57.91
2023-01-27T02:52:23.356Z,57.90
2023-01-27T02:54:52.800Z,58.10
2023-01-27T02:57:20.257Z,58.26
2023-01-27T03:00:04.673Z,58.62
2023-01-27T03:02:33.724Z,58.47
2023-01-27T03:05:01.090Z,58.21
2023-01-27T03:07:28.450Z,58.61
2023-01-27T03:09:56.162Z,58.16
2023-01-27T03:12:23.654Z,58.54
2023-01-27T03:15:11.975Z,58.42
2023-01-27T03:17:58.514Z,59.12
2023-01-27T03:20:25.911Z,59.12
2023-01-27T03:22:53.337Z,59.18
2023-01-27T03:25:23.153Z,59.76
2023-01-27T03:27:51.461Z,60.16
2023-01-27T03:30:43.200Z,59.46
2023-01-27T03:33:20.927Z,59.41
2023-01-27T03:36:16.764Z,60.01
2023-01-27T03:39:06.449Z,60.19
2023-01-27T03:41:52.941Z,59.67
2023-01-27T03:44:40.518Z,60.52
2023-01-27T03:47:08.120Z,58.45
2023-01-27T03:49:35.487Z,57.94
2023-01-27T03:52:02.974Z,57.92
2023-01-27T03:54:30.272Z,57.51
2023-01-27T03:56:57.698Z,57.75
2023-01-27T03:59:25.053Z,57.56
2023-01-27T04:01:52.470Z,57.46
2023-01-27T04:04:38.232Z,57.27
2023-01-27T04:07:05.671Z,57.41
2023-01-27T04:09:36.684Z,55.31
2023-01-27T04:12:06.514Z,55.69
2023-01-27T04:14:37.851Z,56.32
2023-01-27T04:17:10.897Z,55.33
2023-01-27T04:19:38.795Z,55.15
2023-01-27T04:22:07.441Z,54.95
2023-01-27T04:24:34.868Z,54.66
2023-01-27T04:27:05.572Z,55.15
2023-01-27T04:29:36.159Z,54.39
2023-01-27T04:32:06.132Z,54.30
2023-01-27T04:34:33.857Z,54.51
2023-01-27T04:37:03.584Z,54.88
2023-01-27T04:39:31.360Z,54.73
2023-01-27T04:41:58.781Z,55.00
2023-01-27T04:44:26.122Z,54.74
2023-01-27T04:46:56.630Z,54.33
2023-01-27T04:49:26.801Z,54.37
2023-01-27T04:51:55.347Z,54.54
2023-01-27T04:54:22.693Z,54.81
2023-01-27T04:57:01.144Z,55.01
2023-01-27T04:59:28.699Z,54.17
2023-01-27T05:01:56.163Z,54.25
2023-01-27T05:04:23.589Z,53.87
2023-01-27T05:06:50.899Z,54.04
2023-01-27T05:09:18.421Z,54.14
2023-01-27T05:11:45.738Z,54.97
2023-01-27T05:14:14.132Z,54.94
2023-01-27T05:16:41.560Z,54.54
2023-01-27T05:19:09.578Z,54.35
2023-01-27T05:21:36.995Z,54.37
2023-01-27T05:24:04.669Z,54.29
2023-01-27T05:26:32.096Z,53.70
2023-01-27T05:28:59.626Z,54.15
2023-01-27T05:31:29.946Z,53.89
2023-01-27T05:34:00.287Z,53.72
2023-01-27T05:36:28.201Z,53.97
2023-01-27T05:38:56.050Z,54.30
2023-01-27T05:41:23.729Z,53.85
2023-01-27T05:43:55.867Z,54.10
2023-01-27T05:46:29.617Z,53.96
2023-01-27T05:48:59.801Z,53.50
2023-01-27T05:51:30.957Z,53.87
2023-01-27T05:53:58.519Z,53.11
2023-01-27T05:56:26.629Z,53.18
2023-01-27T05:58:55.633Z,53.45
2023-01-27T06:01:25.484Z,52.97
2023-01-27T06:03:53.040Z,53.93
2023-01-27T06:06:22.698Z,53.92
2023-01-27T06:08:50.371Z,52.63
2023-01-27T06:11:20.017Z,51.48
2023-01-27T06:13:48.336Z,51.88
2023-01-27T06:16:18.315Z,51.23
2023-01-27T06:18:46.474Z,51.10
2023-01-27T06:21:15.319Z,52.29
2023-01-27T06:23:43.485Z,52.07
2023-01-27T06:26:14.511Z,51.61
2023-01-27T06:28:42.441Z,50.69
2023-01-27T06:31:16.804Z,50.54
2023-01-27T06:33:44.872Z,51.09
2023-01-27T06:36:17.867Z,51.45
2023-01-27T06:38:45.627Z,52.01
2023-01-27T06:41:13.251Z,51.30
2023-01-27T06:43:40.577Z,50.30
2023-01-27T06:46:08.002Z,50.15
2023-01-27T06:48:35.417Z,50.82
2023-01-27T06:51:02.846Z,50.51
2023-01-27T06:53:31.465Z,51.05
2023-01-27T06:56:01.251Z,50.77
2023-01-27T06:58:29.434Z,51.77
2023-01-27T07:00:57.145Z,51.25
2023-01-27T07:03:24.665Z,50.83
2023-01-27T07:05:53.221Z,51.57
2023-01-27T07:08:20.497Z,51.20
2023-01-27T07:10:47.945Z,51.76
2023-01-27T07:13:15.668Z,51.78
2023-01-27T07:15:43.244Z,51.32
2023-01-27T07:18:12.355Z,51.49
2023-01-27T07:20:40.777Z,51.43
2023-01-27T07:23:09.727Z,51.58
2023-01-27T07:25:37.541Z,51.74
2023-01-27T07:28:05.619Z,50.77
2023-01-27T07:30:37.566Z,51.16
2023-01-27T07:33:09.406Z,51.01
2023-01-27T07:35:37.120Z,51.09
2023-01-27T07:38:09.825Z,50.51
2023-01-27T07:40:37.420Z,50.66
2023-01-27T07:43:04.833Z,51.58
2023-01-27T07:45:35.076Z,50.56
2023-01-27T07:48:04.157Z,50.54
2023-01-27T07:50:32.125Z,50.56
2023-01-27T07:53:03.724Z,49.91
2023-01-27T07:55:32.455Z,50.19
2023-01-27T07:58:00.049Z,50.62
2023-01-27T08:00:28.407Z,50.60
2023-01-27T08:02:57.445Z,50.74
2023-01-27T08:05:25.343Z,50.69
2023-01-27T08:07:55.168Z,50.21
2023-01-27T08:10:23.422Z,50.06
2023-01-27T08:12:50.847Z,50.07
2023-01-27T08:15:19.271Z,49.95
2023-01-27T08:17:54.440Z,50.32
2023-01-27T08:20:22.916Z,49.57
2023-01-27T08:22:50.230Z,50.43
2023-01-27T08:25:17.525Z,50.17
2023-01-27T08:27:44.832Z,50.20
2023-01-27T08:30:12.493Z,49.45
2023-01-27T08:32:39.967Z,50.05
2023-01-27T08:35:07.613Z,50.51
2023-01-27T08:37:34.929Z,49.74
2023-01-27T08:40:02.742Z,49.72
2023-01-27T08:42:30.032Z,49.53
2023-01-27T08:44:58.250Z,50.18
2023-01-27T08:47:25.523Z,50.17
2023-01-27T08:49:54.428Z,50.51
2023-01-27T08:52:23.483Z,49.83
2023-01-27T08:54:50.864Z,49.72
2023-01-27T08:57:18.439Z,49.27
2023-01-27T08:59:46.348Z,48.50
2023-01-27T09:02:14.466Z,48.46
2023-01-27T09:04:44.443Z,49.08
2023-01-27T09:07:11.986Z,50.92
2023-01-27T09:09:39.314Z,54.89
2023-01-27T09:12:07.038Z,57.48
2023-01-27T09:14:34.475Z,57.98
2023-01-27T09:17:01.910Z,57.18
2023-01-27T09:19:29.441Z,51.26
2023-01-27T09:21:56.894Z,51.13
2023-01-27T09:24:24.445Z,48.76
2023-01-27T09:26:51.916Z,49.37
2023-01-27T09:29:19.337Z,48.50
2023-01-27T09:31:46.810Z,47.96
2023-01-27T09:34:14.206Z,48.29
2023-01-27T09:36:47.448Z,48.32
2023-01-27T09:39:17.021Z,48.51
2023-01-27T09:42:49.234Z,48.57
2023-01-27T09:45:49.007Z,49.02
2023-01-27T09:48:35.286Z,48.96
2023-01-27T09:51:28.347Z,49.04
2023-01-27T09:54:20.377Z,49.05
2023-01-27T09:56:59.211Z,48.81
2023-01-27T09:59:42.311Z,48.08
2023-01-27T10:02:28.503Z,48.53
2023-01-27T10:05:24.104Z,48.47
2023-01-27T10:08:05.051Z,48.86
2023-01-27T10:10:40.305Z,49.07
2023-01-27T10:13:19.373Z,48.90
2023-01-27T10:16:23.587Z,48.63
2023-01-27T10:19:06.368Z,48.66
2023-01-27T10:21:42.842Z,49.14
2023-01-27T10:24:33.207Z,47.33
2023-01-27T10:27:20.821Z,46.27
2023-01-27T10:29:55.852Z,46.90
2023-01-27T10:32:28.281Z,46.83
2023-01-27T10:34:58.410Z,46.64
2023-01-27T10:37:45.533Z,46.69
2023-01-27T10:40:40.383Z,46.31
2023-01-27T10:43:26.069Z,46.10
2023-01-27T10:46:23.906Z,46.89
2023-01-27T10:49:06.874Z,46.53
2023-01-27T10:51:52.562Z,46.86
2023-01-27T10:54:38.134Z,46.53
2023-01-27T10:57:11.506Z,45.70
2023-01-27T11:00:51.428Z,45.91
2023-01-27T11:03:15.408Z,45.15
2023-01-27T11:05:48.424Z,45.34
2023-01-27T11:08:20.044Z,46.00
2023-01-27T11:11:07.861Z,46.37
2023-01-27T11:13:35.445Z,46.03
2023-01-27T11:16:05.581Z,45.64
2023-01-27T11:18:37.756Z,45.54
2023-01-27T11:21:11.067Z,44.47
2023-01-27T11:23:45.710Z,44.45
2023-01-27T11:26:39.491Z,44.54
2023-01-27T11:29:31.911Z,44.49
2023-01-27T11:32:21.262Z,45.62
2023-01-27T11:35:02.549Z,44.74
2023-01-27T11:37:41.461Z,45.29
2023-01-27T11:40:21.734Z,44.87
2023-01-27T11:42:51.812Z,44.11
2023-01-27T11:45:21.311Z,43.64
2023-01-27T11:47:53.192Z,43.58
2023-01-27T11:50:22.307Z,43.99
2023-01-27T11:52:54.723Z,44.17
2023-01-27T11:55:27.350Z,44.47
2023-01-27T11:58:12.233Z,43.82
2023-01-27T12:00:45.524Z,44.06
2023-01-27T12:03:21.891Z,43.46
2023-01-27T12:05:55.575Z,44.04
2023-01-27T12:08:36.520Z,43.85
2023-01-27T12:11:18.462Z,44.23
2023-01-27T12:14:00.109Z,42.99
2023-01-27T12:16:40.498Z,43.33
2023-01-27T12:19:17.904Z,43.25
2023-01-27T12:21:52.456Z,43.51
2023-01-27T12:24:28.242Z,43.43
2023-01-27T12:26:56.773Z,43.55
2023-01-27T12:29:38.951Z,43.90
2023-01-27T12:32:15.744Z,44.31
2023-01-27T12:34:49.224Z,44.02
2023-01-27T12:37:24.107Z,44.12
2023-01-27T12:40:00.517Z,43.37
2023-01-27T12:42:42.116Z,42.56
2023-01-27T12:45:21.335Z,43.62
2023-01-27T12:47:57.845Z,43.68
2023-01-27T12:50:32.326Z,43.70
2023-01-27T12:53:09.361Z,44.04
2023-01-27T12:55:41.111Z,43.82
2023-01-27T12:58:27.595Z,43.21
2023-01-27T13:00:55.583Z,42.76
2023-01-27T13:03:23.903Z,42.37
2023-01-27T13:05:57.212Z,42.52
2023-01-27T13:08:27.516Z,43.21
2023-01-27T13:10:58.213Z,43.68
2023-01-27T13:13:28.039Z,43.04
2023-01-27T13:16:17.721Z,43.07
2023-01-27T13:18:56.506Z,43.42
2023-01-27T13:21:34.234Z,43.05
2023-01-27T13:24:10.339Z,43.71
2023-01-27T13:26:40.349Z,44.22
2023-01-27T13:29:15.554Z,43.93
2023-01-27T13:32:01.959Z,44.28
2023-01-27T13:34:48.560Z,44.70
2023-01-27T13:37:40.765Z,44.74
2023-01-27T13:40:21.593Z,43.96
2023-01-27T13:42:59.629Z,44.15
2023-01-27T13:45:40.330Z,44.20
2023-01-27T13:48:20.337Z,44.03
2023-01-27T13:50:53.332Z,44.27
2023-01-27T13:53:20.849Z,44.74
2023-01-27T13:56:03.165Z,44.99
2023-01-27T13:58:44.419Z,43.84
2023-01-27T14:01:28.403Z,43.91
2023-01-27T14:04:23.010Z,44.02
2023-01-27T14:07:08.575Z,44.66
2023-01-27T14:09:46.921Z,45.08
2023-01-27T14:12:21.445Z,45.49
2023-01-27T14:15:01.837Z,45.19
2023-01-27T14:17:41.935Z,44.68
2023-01-27T14:20:15.403Z,45.15
2023-01-27T14:22:53.720Z,44.96
2023-01-27T14:25:30.686Z,45.32
2023-01-27T14:28:15.660Z,45.86
2023-01-27T14:30:49.193Z,46.50
2023-01-27T14:33:26.456Z,45.42
2023-01-27T14:36:15.004Z,45.96
2023-01-27T14:38:55.578Z,45.78
2023-01-27T14:41:27.649Z,45.54
2023-01-27T14:44:06.254Z,46.67
2023-01-27T14:46:57.700Z,46.46
2023-01-27T14:49:37.888Z,46.59
2023-01-27T14:52:41.973Z,46.23
2023-01-27T14:55:18.239Z,47.13
2023-01-27T14:58:14.820Z,46.78
2023-01-27T15:01:23.394Z,47.10
2023-01-27T15:04:09.249Z,47.63
2023-01-27T15:06:45.043Z,47.63
2023-01-27T15:09:21.266Z,47.40
2023-01-27T15:12:03.857Z,47.60
2023-01-27T15:14:57.885Z,47.74
2023-01-27T15:17:28.223Z,47.97
2023-01-27T15:20:14.208Z,48.13
2023-01-27T15:23:07.432Z,48.76
2023-01-27T15:25:43.907Z,48.49
2023-01-27T15:28:17.778Z,48.28
2023-01-27T15:31:17.631Z,48.91
2023-01-27T15:33:53.741Z,49.32
2023-01-27T15:36:27.058Z,49.09
2023-01-27T15:39:09.499Z,48.88
2023-01-27T15:41:58.190Z,49.32
2023-01-27T15:44:25.601Z,49.46
2023-01-27T15:46:54.526Z,49.54
2023-01-27T15:49:27.291Z,49.73
2023-01-27T15:52:07.870Z,49.58
2023-01-27T15:54:40.525Z,50.19
2023-01-27T15:57:24.969Z,50.70
2023-01-27T15:59:59.038Z,50.62
2023-01-27T16:02:32.134Z,50.90
2023-01-27T16:05:37.566Z,50.71
2023-01-27T16:08:14.562Z,50.76
2023-01-27T16:10:42.856Z,51.56
2023-01-27T16:13:26.082Z,51.32
2023-01-27T16:16:18.395Z,51.55
2023-01-27T16:19:10.663Z,52.04
2023-01-27T16:21:44.718Z,51.80
2023-01-27T16:24:24.157Z,51.81
2023-01-27T16:27:07.575Z,51.70
2023-01-27T16:29:46.396Z,51.61
2023-01-27T16:32:19.274Z,52.22
2023-01-27T16:34:54.127Z,52.07
2023-01-27T16:37:27.661Z,52.31
2023-01-27T16:40:02.253Z,52.11
2023-01-27T16:42:37.078Z,52.29
2023-01-27T16:45:21.422Z,52.42
2023-01-27T16:47:56.705Z,52.79
2023-01-27T16:50:44.322Z,53.09
2023-01-27T16:53:18.845Z,53.44
2023-01-27T16:56:03.844Z,53.78
2023-01-27T16:58:45.472Z,53.76
2023-01-27T17:01:34.138Z,53.62
2023-01-27T17:04:19.519Z,53.75
2023-01-27T17:06:49.340Z,53.90
2023-01-27T17:09:32.167Z,54.41
2023-01-27T17:11:59.600Z,54.66
2023-01-27T17:14:34.665Z,54.90
2023-01-27T17:17:05.893Z,55.34
2023-01-27T17:19:36.061Z,55.36
2023-01-27T17:22:22.592Z,55.39
2023-01-27T17:24:55.017Z,55.57
2023-01-27T17:27:37.946Z,54.92
2023-01-27T17:30:13.884Z,55.55
2023-01-27T17:32:45.876Z,55.54
2023-01-27T17:35:25.470Z,55.55
2023-01-27T17:38:03.855Z,55.77
2023-01-27T17:40:38.579Z,55.73
2023-01-27T17:43:28.880Z,56.13
2023-01-27T17:46:05.525Z,55.67
2023-01-27T17:48:35.004Z,55.53
2023-01-27T17:51:02.421Z,55.77
2023-01-27T17:53:30.273Z,55.70
2023-01-27T17:55:57.766Z,56.28
2023-01-27T17:58:27.682Z,56.20
2023-01-27T18:00:56.262Z,56.17
2023-01-27T18:03:29.753Z,56.30
2023-01-27T18:05:57.343Z,56.60
2023-01-27T18:08:24.708Z,57.25
2023-01-27T18:10:52.659Z,57.99
2023-01-27T18:13:20.008Z,58.51
2023-01-27T18:15:50.381Z,58.75
2023-01-27T18:18:26.455Z,58.81
2023-01-27T18:21:04.125Z,59.52
2023-01-27T18:23:34.836Z,59.69
2023-01-27T18:26:22.038Z,60.49
2023-01-27T18:29:11.725Z,62.29
2023-01-27T18:31:49.126Z,60.99
2023-01-27T18:34:29.296Z,60.92
2023-01-27T18:37:03.194Z,60.86
2023-01-27T18:39:36.600Z,60.92
2023-01-27T18:42:12.942Z,61.33
2023-01-27T18:44:40.327Z,61.22
2023-01-27T18:47:19.903Z,60.76
2023-01-27T18:50:12.253Z,60.44
2023-01-27T18:52:40.402Z,60.80
2023-01-27T18:55:25.543Z,61.67
2023-01-27T18:57:58.694Z,61.11
2023-01-27T19:00:30.364Z,61.34
2023-01-27T19:03:00.912Z,61.99
2023-01-27T19:05:32.981Z,61.97
2023-01-27T19:08:01.231Z,62.23
2023-01-27T19:10:34.011Z,62.40
2023-01-27T19:13:03.384Z,62.21
2023-01-27T19:15:33.432Z,61.92
2023-01-27T19:18:06.740Z,62.04
2023-01-27T19:20:34.156Z,62.57
2023-01-27T19:23:01.501Z,63.65
2023-01-27T19:25:31.326Z,64.11
2023-01-27T19:28:04.550Z,63.53
2023-01-27T19:30:37.591Z,64.30
2023-01-27T19:33:17.019Z,64.49
2023-01-27T19:35:48.592Z,65.21
2023-01-27T19:38:15.898Z,65.26
2023-01-27T19:40:43.380Z,65.17
2023-01-27T19:43:15.143Z,64.97
2023-01-27T19:45:47.576Z,65.29
2023-01-27T19:48:17.789Z,65.09
2023-01-27T19:50:45.993Z,64.78
2023-01-27T19:53:14.849Z,64.35
2023-01-27T19:55:42.512Z,65.06
2023-01-27T19:58:24.901Z,64.66
2023-01-27T20:00:53.956Z,64.59
2023-01-27T20:03:39.668Z,64.97
2023-01-27T20:06:27.669Z,65.75
2023-01-27T20:08:59.806Z,65.45
2023-01-27T20:11:41.450Z,65.73
2023-01-27T20:14:19.019Z,65.28
2023-01-27T20:16:47.533Z,64.43
2023-01-27T20:19:18.821Z,64.40
2023-01-27T20:21:46.759Z,64.54
2023-01-27T20:24:19.025Z,64.73
2023-01-27T20:26:47.579Z,64.63
2023-01-27T20:29:15.781Z,64.51
2023-01-27T20:31:44.328Z,64.52
2023-01-27T20:34:11.824Z,65.16
2023-01-27T20:36:39.203Z,65.63
2023-01-27T20:39:07.183Z,65.90
2023-01-27T20:41:34.640Z,66.19
2023-01-27T20:44:02.043Z,65.57
2023-01-27T20:46:30.764Z,65.77
2023-01-27T20:49:00.280Z,65.92
2023-01-27T20:51:28.629Z,66.34
2023-01-27T20:53:58.576Z,66.50
2023-01-27T20:56:26.181Z,67.05
2023-01-27T20:58:54.344Z,67.73
2023-01-27T21:01:24.303Z,67.31
2023-01-27T21:03:52.101Z,67.34
2023-01-27T21:06:20.140Z,67.42
2023-01-27T21:08:49.305Z,67.03
2023-01-27T21:11:20.095Z,67.44
2023-01-27T21:13:48.673Z,68.21
2023-01-27T21:16:16.122Z,68.61
2023-01-27T21:18:44.229Z,68.62
2023-01-27T21:21:30.666Z,68.70
2023-01-27T21:24:00.116Z,68.44
2023-01-27T21:26:27.905Z,68.61
2023-01-27T21:28:56.444Z,69.05
2023-01-27T21:31:30.212Z,69.18
2023-01-27T21:34:00.001Z,69.87
2023-01-27T21:36:27.374Z,69.32
2023-01-27T21:38:54.784Z,69.08
2023-01-27T21:41:42.518Z,68.79
2023-01-27T21:44:37.932Z,69.15
2023-01-27T21:47:07.696Z,69.56
2023-01-27T21:49:55.527Z,69.20
2023-01-27T21:52:24.295Z,70.08
2023-01-27T21:54:52.342Z,69.71
2023-01-27T21:57:19.690Z,69.95
2023-01-27T21:59:47.315Z,69.79
2023-01-27T22:02:19.112Z,70.29
2023-01-27T22:04:47.140Z,70.27
2023-01-27T22:07:16.894Z,69.88
2023-01-27T22:09:44.540Z,70.01
2023-01-27T22:12:15.294Z,70.08
2023-01-27T22:14:43.761Z,70.53
2023-01-27T22:17:11.223Z,70.87
2023-01-27T22:19:39.779Z,70.69
2023-01-27T22:22:09.352Z,70.94
2023-01-27T22:24:36.709Z,70.66
2023-01-27T22:27:04.112Z,70.46
2023-01-27T22:29:31.414Z,71.03
2023-01-27T22:31:58.767Z,70.46
2023-01-27T22:34:26.991Z,70.01
2023-01-27T22:36:54.355Z,69.24
2023-01-27T22:39:21.802Z,69.78
2023-01-27T22:41:50.383Z,70.46
2023-01-27T22:44:18.099Z,70.05
2023-01-27T22:46:45.528Z,69.91
2023-01-27T22:49:12.924Z,69.51
2023-01-27T22:51:40.328Z,68.97
2023-01-27T22:54:09.491Z,68.85
2023-01-27T22:56:36.954Z,68.36
2023-01-27T22:59:04.335Z,68.31
2023-01-27T23:01:31.738Z,67.62
2023-01-27T23:03:59.314Z,68.31
2023-01-27T23:06:26.782Z,67.38
2023-01-27T23:08:54.151Z,67.49
2023-01-27T23:11:21.586Z,67.22
2023-01-27T23:13:49.129Z,67.69
2023-01-27T23:16:16.483Z,68.30
2023-01-27T23:18:43.867Z,68.36
2023-01-27T23:21:11.351Z,67.73
2023-01-27T23:23:38.744Z,68.44
2023-01-27T23:26:09.922Z,68.90
2023-01-27T23:28:39.072Z,69.18
2023-01-27T23:31:11.208Z,68.61
2023-01-27T23:33:41.361Z,67.55
2023-01-27T23:36:10.313Z,67.85
2023-01-27T23:38:38.735Z,67.97
2023-01-27T23:41:18.214Z,67.74
2023-01-27T23:43:51.014Z,68.34
2023-01-27T23:46:19.433Z,68.01
2023-01-27T23:48:55.386Z,67.43
2023-01-27T23:51:22.964Z,66.89
2023-01-27T23:53:51.191Z,67.27
2023-01-27T23:56:20.244Z,68.10
2023-01-27T23:58:48.141Z,67.30
